Terminal Aerodrome Forecast
Issued by NWS

Home | Current Version | Previous Version | Text Only | Print | Product List | Glossary On
Versions: 1 2 3 4 5 6 7 8 9 10 11 12 13 14
000
FTUS44 KCRP 291724
TAFLRD
TAF
KLRD 291724Z 2918/3018 03012KT P6SM VCSH BKN040 OVC150
     FM292000 02006KT P6SM VCTS BKN050CB OVC150
     FM300300 04006KT P6SM BKN035 OVC250
     FM301000 04008KT P6SM BKN025 OVC250=

USA.gov is the U.S. government's official web portal to all federal, state and local government web resources and services.